createdAt,value
2019-02-20T00:01:12.919Z,90.90
2019-02-20T00:03:42.214Z,90.90
2019-02-20T00:06:11.815Z,90.90
2019-02-20T00:08:42.175Z,91.10
2019-02-20T00:11:11.441Z,91.20
2019-02-20T00:13:40.720Z,91.10
2019-02-20T00:16:10.253Z,91.30
2019-02-20T00:18:39.761Z,91.30
2019-02-20T00:21:09.045Z,91.60
2019-02-20T00:23:38.668Z,91.40
2019-02-20T00:26:09.199Z,90.90
2019-02-20T00:28:38.801Z,90.90
2019-02-20T00:31:08.074Z,91.00
2019-02-20T00:33:37.620Z,91.00
2019-02-20T00:36:07.219Z,91.20
2019-02-20T00:38:36.834Z,91.00
2019-02-20T00:41:06.128Z,91.10
2019-02-20T00:43:35.406Z,90.90
2019-02-20T00:46:06.336Z,90.90
2019-02-20T00:48:37.264Z,90.70
2019-02-20T00:51:11.289Z,90.80
2019-02-20T00:53:42.439Z,90.60
2019-02-20T00:56:12.044Z,90.90
2019-02-20T00:58:41.314Z,92.00
2019-02-20T01:01:10.885Z,92.80
2019-02-20T01:03:40.145Z,91.50
2019-02-20T01:06:09.683Z,91.50
2019-02-20T01:08:38.961Z,90.10
2019-02-20T01:11:08.254Z,90.00
2019-02-20T01:13:37.517Z,90.80
2019-02-20T01:16:07.038Z,90.70
2019-02-20T01:18:36.602Z,90.50
2019-02-20T01:21:05.885Z,91.00
2019-02-20T01:23:35.170Z,91.10
2019-02-20T01:26:05.469Z,91.40
2019-02-20T01:28:35.029Z,92.20
2019-02-20T01:31:04.477Z,91.70
2019-02-20T01:33:33.983Z,91.30
2019-02-20T01:36:03.265Z,91.40
2019-02-20T01:38:32.536Z,92.10
2019-02-20T01:41:02.143Z,92.10
2019-02-20T01:43:32.503Z,92.20
2019-02-20T01:46:02.081Z,92.50
2019-02-20T01:48:31.362Z,92.50
2019-02-20T01:51:00.647Z,92.40
2019-02-20T01:53:30.183Z,92.00
2019-02-20T01:56:00.538Z,92.50
2019-02-20T01:58:30.118Z,93.00
2019-02-20T02:00:59.402Z,93.40
2019-02-20T02:03:28.682Z,93.40
2019-02-20T02:05:57.957Z,92.10
2019-02-20T02:08:27.525Z,92.50
2019-02-20T02:10:56.801Z,93.20
2019-02-20T02:13:26.082Z,92.40
2019-02-20T02:15:55.372Z,91.50
2019-02-20T02:18:24.929Z,91.50
2019-02-20T02:20:54.205Z,91.70
2019-02-20T02:23:23.484Z,91.70
2019-02-20T02:25:53.039Z,91.30
2019-02-20T02:28:22.321Z,91.40
2019-02-20T02:30:51.617Z,91.90
2019-02-20T02:33:20.874Z,92.40
2019-02-20T02:35:50.178Z,92.70
2019-02-20T02:38:19.445Z,92.50
2019-02-20T02:40:49.975Z,92.00
2019-02-20T02:43:19.241Z,92.10
2019-02-20T02:45:48.522Z,92.20
2019-02-20T02:48:17.813Z,92.80
2019-02-20T02:50:47.072Z,93.20
2019-02-20T02:53:16.692Z,93.10
2019-02-20T02:55:46.286Z,92.80
2019-02-20T02:58:15.894Z,92.30
2019-02-20T03:00:45.157Z,92.20
2019-02-20T03:03:15.410Z,92.60
2019-02-20T03:05:44.926Z,92.90
2019-02-20T03:08:14.216Z,93.10
2019-02-20T03:10:43.485Z,92.80
2019-02-20T03:13:12.765Z,92.20
2019-02-20T03:15:42.039Z,93.00
2019-02-20T03:18:11.549Z,93.80
2019-02-20T03:20:40.824Z,94.20
2019-02-20T03:23:10.101Z,94.20
2019-02-20T03:25:39.756Z,94.20
2019-02-20T03:28:09.350Z,93.40
2019-02-20T03:30:38.635Z,93.20
2019-02-20T03:33:07.915Z,93.90
2019-02-20T03:35:37.190Z,93.70
2019-02-20T03:38:06.462Z,93.30
2019-02-20T03:40:35.812Z,94.90
2019-02-20T03:43:05.092Z,95.00
2019-02-20T03:45:34.353Z,94.80
2019-02-20T03:48:03.964Z,94.30
2019-02-20T03:50:33.235Z,94.40
2019-02-20T03:53:02.517Z,94.20
2019-02-20T03:55:31.963Z,94.20
2019-02-20T03:58:01.303Z,94.40
2019-02-20T04:00:30.692Z,94.70
2019-02-20T04:03:00.211Z,94.60
2019-02-20T04:05:29.799Z,94.70
2019-02-20T04:07:59.077Z,94.50
2019-02-20T04:10:28.401Z,94.40
2019-02-20T04:12:57.680Z,94.20
2019-02-20T04:15:27.021Z,93.90
2019-02-20T04:17:56.589Z,93.80
2019-02-20T04:20:25.868Z,93.80
2019-02-20T04:22:55.162Z,93.50
2019-02-20T04:25:24.425Z,93.50
2019-02-20T04:27:53.717Z,93.10
2019-02-20T04:30:22.982Z,93.60
2019-02-20T04:32:52.603Z,93.50
2019-02-20T04:35:22.973Z,93.70
2019-02-20T04:37:52.639Z,93.80
2019-02-20T04:40:21.945Z,93.70
2019-02-20T04:42:51.193Z,93.40
2019-02-20T04:45:20.746Z,93.30
2019-02-20T04:47:50.350Z,93.20
2019-02-20T04:50:19.647Z,93.50
2019-02-20T04:52:48.914Z,93.40
2019-02-20T04:55:18.193Z,93.30
2019-02-20T04:57:47.462Z,93.40
2019-02-20T05:00:16.750Z,93.60
2019-02-20T05:02:46.013Z,93.90
2019-02-20T05:05:15.292Z,93.80
2019-02-20T05:07:44.567Z,93.70
2019-02-20T05:10:13.859Z,93.80
2019-02-20T05:12:43.131Z,93.50
2019-02-20T05:15:12.667Z,93.50
2019-02-20T05:17:41.933Z,93.40
2019-02-20T05:20:11.470Z,93.30
2019-02-20T05:22:40.737Z,93.50
2019-02-20T05:25:10.027Z,93.60
2019-02-20T05:27:39.611Z,93.70
2019-02-20T05:30:09.107Z,93.80
2019-02-20T05:32:38.382Z,93.70
2019-02-20T05:35:07.667Z,93.50
2019-02-20T05:37:37.013Z,93.60
2019-02-20T05:40:09.150Z,93.80
2019-02-20T05:42:38.437Z,93.70
2019-02-20T05:45:08.250Z,93.60
2019-02-20T05:47:37.521Z,93.90
2019-02-20T05:50:08.201Z,93.70
2019-02-20T05:52:37.810Z,93.70
2019-02-20T05:55:07.454Z,94.00
2019-02-20T05:57:36.725Z,93.90
2019-02-20T06:00:09.319Z,93.80
2019-02-20T06:02:38.601Z,94.00
2019-02-20T06:05:08.125Z,94.10
2019-02-20T06:07:37.397Z,94.10
2019-02-20T06:10:08.923Z,94.10
2019-02-20T06:12:38.202Z,94.00
2019-02-20T06:15:09.762Z,93.60
2019-02-20T06:17:39.051Z,93.60
2019-02-20T06:20:10.167Z,93.70
2019-02-20T06:22:40.405Z,93.70
2019-02-20T06:25:09.759Z,93.70
2019-02-20T06:27:39.109Z,93.80
2019-02-20T06:30:11.185Z,93.50
2019-02-20T06:32:40.496Z,93.80
2019-02-20T06:35:09.785Z,93.80
2019-02-20T06:37:39.067Z,93.60
2019-02-20T06:40:09.915Z,93.60
2019-02-20T06:42:39.181Z,93.30
2019-02-20T06:45:10.946Z,93.40
2019-02-20T06:47:40.217Z,93.30
2019-02-20T06:50:09.954Z,93.00
2019-02-20T06:52:39.245Z,93.20
2019-02-20T06:55:11.385Z,93.30
2019-02-20T06:57:40.673Z,93.20
2019-02-20T07:00:12.753Z,93.00
2019-02-20T07:02:42.297Z,93.30
2019-02-20T07:05:30.594Z,93.30
2019-02-20T07:08:21.297Z,93.70
2019-02-20T07:11:19.729Z,93.50
2019-02-20T07:14:28.057Z,93.40
2019-02-20T07:17:14.793Z,93.70
2019-02-20T07:20:02.382Z,94.00
2019-02-20T07:22:52.572Z,94.40
2019-02-20T07:25:24.918Z,94.70
2019-02-20T07:28:23.165Z,94.50
2019-02-20T07:30:52.729Z,94.40
2019-02-20T07:33:22.017Z,94.50
2019-02-20T07:35:51.297Z,94.70
2019-02-20T07:38:20.662Z,95.00
2019-02-20T07:40:49.940Z,95.20
2019-02-20T07:43:19.270Z,95.20
2019-02-20T07:45:49.259Z,95.30
2019-02-20T07:48:18.705Z,95.40
2019-02-20T07:50:48.275Z,95.40
2019-02-20T07:53:17.561Z,95.40
2019-02-20T07:55:46.833Z,95.20
2019-02-20T07:58:16.135Z,94.70
2019-02-20T08:00:45.399Z,95.00
2019-02-20T08:03:14.978Z,95.00
2019-02-20T08:05:44.781Z,94.90
2019-02-20T08:08:14.065Z,94.90
2019-02-20T08:10:43.342Z,94.40
2019-02-20T08:13:12.630Z,94.60
2019-02-20T08:15:42.890Z,94.60
2019-02-20T08:18:12.421Z,93.90
2019-02-20T08:20:41.708Z,93.60
2019-02-20T08:23:11.005Z,93.90
2019-02-20T08:25:40.303Z,93.70
2019-02-20T08:28:09.575Z,93.60
2019-02-20T08:30:39.126Z,93.50
2019-02-20T08:33:08.433Z,93.40
2019-02-20T08:35:37.761Z,93.40
2019-02-20T08:38:08.009Z,93.10
2019-02-20T08:40:37.298Z,92.90
2019-02-20T08:43:06.880Z,93.40
2019-02-20T08:45:37.195Z,92.50
2019-02-20T08:48:06.796Z,92.50
2019-02-20T08:50:36.081Z,92.20
2019-02-20T08:53:05.358Z,92.50
2019-02-20T08:55:34.651Z,91.90
2019-02-20T08:58:03.929Z,91.70
2019-02-20T09:00:33.220Z,91.30
2019-02-20T09:03:02.507Z,91.00
2019-02-20T09:05:34.129Z,90.40
2019-02-20T09:08:02.786Z,90.40
2019-02-20T09:10:32.094Z,90.40
2019-02-20T09:13:01.657Z,90.50
2019-02-20T09:15:30.943Z,90.20
2019-02-20T09:18:00.560Z,89.40
2019-02-20T09:20:30.162Z,89.40
2019-02-20T09:22:59.454Z,88.30
2019-02-20T09:25:28.745Z,88.30
2019-02-20T09:27:58.266Z,88.00
2019-02-20T09:30:28.891Z,87.10
2019-02-20T09:32:58.550Z,86.50
2019-02-20T09:35:27.841Z,85.60
2019-02-20T09:37:57.419Z,86.10
2019-02-20T09:40:26.701Z,84.90
2019-02-20T09:42:55.993Z,84.90
2019-02-20T09:45:25.289Z,85.10
2019-02-20T09:47:54.561Z,85.00
2019-02-20T09:50:24.126Z,84.70
2019-02-20T09:52:53.393Z,83.70
2019-02-20T09:55:22.682Z,84.30
2019-02-20T09:57:51.965Z,83.10
2019-02-20T10:00:21.748Z,82.80
2019-02-20T10:02:51.012Z,83.00
2019-02-20T10:05:20.298Z,82.60
2019-02-20T10:07:49.848Z,82.00
2019-02-20T10:10:19.143Z,81.60
2019-02-20T10:12:48.426Z,81.00
2019-02-20T10:15:19.049Z,80.20
2019-02-20T10:17:48.338Z,80.30
2019-02-20T10:20:17.638Z,79.80
2019-02-20T10:22:47.897Z,79.50
2019-02-20T10:25:17.185Z,78.50
2019-02-20T10:27:46.472Z,78.40
2019-02-20T10:30:19.934Z,76.30
2019-02-20T10:32:49.222Z,76.30
2019-02-20T10:35:18.812Z,77.80
2019-02-20T10:37:48.413Z,76.20
2019-02-20T10:40:17.705Z,77.20
2019-02-20T10:42:46.997Z,77.70
2019-02-20T10:45:16.345Z,78.00
2019-02-20T10:47:45.926Z,77.80
2019-02-20T10:50:15.386Z,78.00
2019-02-20T10:52:44.680Z,78.20
2019-02-20T10:55:13.961Z,77.40
2019-02-20T10:57:43.253Z,77.90
2019-02-20T11:00:23.350Z,78.30
2019-02-20T11:02:47.887Z,77.40
2019-02-20T11:05:17.332Z,77.90
2019-02-20T11:07:47.209Z,78.60
2019-02-20T11:10:16.801Z,79.40
2019-02-20T11:12:46.090Z,78.20
2019-02-20T11:15:15.387Z,75.30
2019-02-20T11:17:44.677Z,75.70
2019-02-20T11:20:14.220Z,75.60
2019-02-20T11:22:43.509Z,75.40
2019-02-20T11:25:13.282Z,75.60
2019-02-20T11:27:42.561Z,76.40
2019-02-20T11:30:23.790Z,75.90
2019-02-20T11:32:53.083Z,75.80
2019-02-20T11:35:22.531Z,75.80
2019-02-20T11:37:53.367Z,75.50
2019-02-20T11:40:22.955Z,75.70
2019-02-20T11:42:52.258Z,76.70
2019-02-20T11:45:21.869Z,76.60
2019-02-20T11:47:51.173Z,77.10
2019-02-20T11:50:20.459Z,77.00
2019-02-20T11:52:49.756Z,76.30
2019-02-20T11:55:19.374Z,75.60
2019-02-20T11:57:48.671Z,75.80
2019-02-20T12:00:21.153Z,76.30
2019-02-20T12:02:50.441Z,75.40
2019-02-20T12:05:19.725Z,76.60
2019-02-20T12:07:49.017Z,74.60
2019-02-20T12:10:18.773Z,74.90
2019-02-20T12:12:48.071Z,75.20
2019-02-20T12:15:17.358Z,74.60
2019-02-20T12:17:47.999Z,76.00
2019-02-20T12:20:17.618Z,76.90
2019-02-20T12:22:46.897Z,77.10
2019-02-20T12:25:16.176Z,76.40
2019-02-20T12:27:45.484Z,76.90
2019-02-20T12:30:15.010Z,77.20
2019-02-20T12:32:44.309Z,76.10
2019-02-20T12:35:13.592Z,76.20
2019-02-20T12:37:42.906Z,76.30
2019-02-20T12:40:12.195Z,75.50
2019-02-20T12:42:42.053Z,76.00
2019-02-20T12:45:11.465Z,75.00
2019-02-20T12:47:40.749Z,75.80
2019-02-20T12:50:11.966Z,75.10
2019-02-20T12:52:41.248Z,76.00
2019-02-20T12:55:10.713Z,76.20
2019-02-20T12:57:40.399Z,76.50
2019-02-20T13:00:15.874Z,76.00
2019-02-20T13:02:45.149Z,75.70
2019-02-20T13:05:14.726Z,76.20
2019-02-20T13:07:44.266Z,76.30
2019-02-20T13:10:13.690Z,75.60
2019-02-20T13:12:43.063Z,73.60
2019-02-20T13:15:13.487Z,73.50
2019-02-20T13:17:42.765Z,73.00
2019-02-20T13:20:12.331Z,72.50
2019-02-20T13:22:41.612Z,73.10
2019-02-20T13:25:10.905Z,73.20
2019-02-20T13:27:40.406Z,72.00
2019-02-20T13:30:12.558Z,72.50
2019-02-20T13:32:41.839Z,71.90
2019-02-20T13:35:11.197Z,72.70
2019-02-20T13:37:40.792Z,73.20
2019-02-20T13:40:11.142Z,73.60
2019-02-20T13:42:40.421Z,71.20
2019-02-20T13:45:09.955Z,71.20
2019-02-20T13:47:40.488Z,70.70
2019-02-20T13:50:11.796Z,71.70
2019-02-20T13:52:42.760Z,72.00
2019-02-20T13:55:12.067Z,72.40
2019-02-20T13:57:41.337Z,72.20
2019-02-20T14:00:13.325Z,72.90
2019-02-20T14:02:42.909Z,72.10
2019-02-20T14:05:12.202Z,72.80
2019-02-20T14:07:41.854Z,73.00
2019-02-20T14:10:12.813Z,72.80
2019-02-20T14:12:42.095Z,73.00
2019-02-20T14:15:12.521Z,72.50
2019-02-20T14:17:41.805Z,72.30
2019-02-20T14:20:12.301Z,72.20
2019-02-20T14:22:41.883Z,72.10
2019-02-20T14:25:11.487Z,72.70
2019-02-20T14:27:40.764Z,72.20
2019-02-20T14:30:12.004Z,73.20
2019-02-20T14:32:41.282Z,72.80
2019-02-20T14:35:12.438Z,72.30
2019-02-20T14:37:42.330Z,71.90
2019-02-20T14:40:11.626Z,72.40
2019-02-20T14:42:41.232Z,71.70
2019-02-20T14:45:18.111Z,71.50
2019-02-20T14:47:47.464Z,72.10
2019-02-20T14:50:16.834Z,72.70
2019-02-20T14:52:46.105Z,68.60
2019-02-20T14:55:15.408Z,67.80
2019-02-20T14:57:44.936Z,69.10
2019-02-20T15:00:15.460Z,70.20
2019-02-20T15:02:46.091Z,70.50
2019-02-20T15:05:15.373Z,71.90
2019-02-20T15:07:44.668Z,70.50
2019-02-20T15:10:13.944Z,70.80
2019-02-20T15:12:43.228Z,71.40
2019-02-20T15:15:13.510Z,70.40
2019-02-20T15:17:43.130Z,70.40
2019-02-20T15:20:12.421Z,70.30
2019-02-20T15:22:41.706Z,69.90
2019-02-20T15:25:11.061Z,70.30
2019-02-20T15:27:40.338Z,70.40
2019-02-20T15:30:12.761Z,70.70
2019-02-20T15:32:42.142Z,70.20
2019-02-20T15:35:11.585Z,70.70
2019-02-20T15:37:41.109Z,70.40
2019-02-20T15:40:10.549Z,70.90
2019-02-20T15:42:41.047Z,71.50
2019-02-20T15:45:11.578Z,71.60
2019-02-20T15:47:40.909Z,71.90
2019-02-20T15:50:15.293Z,72.40
2019-02-20T15:52:44.590Z,72.80
2019-02-20T15:55:14.423Z,72.60
2019-02-20T15:57:43.733Z,72.40
2019-02-20T16:00:17.541Z,72.80
2019-02-20T16:02:47.805Z,72.50
2019-02-20T16:05:19.108Z,71.80
2019-02-20T16:07:48.773Z,72.00
2019-02-20T16:10:18.401Z,72.10
2019-02-20T16:12:47.691Z,72.00
2019-02-20T16:15:16.969Z,72.40
2019-02-20T16:17:46.527Z,72.40
2019-02-20T16:20:16.070Z,72.00
2019-02-20T16:22:45.640Z,71.90
2019-02-20T16:25:16.053Z,72.30
2019-02-20T16:27:47.567Z,72.00
2019-02-20T16:30:16.334Z,72.40
2019-02-20T16:32:45.662Z,72.40
2019-02-20T16:35:15.417Z,72.80
2019-02-20T16:37:44.701Z,72.80
2019-02-20T16:40:15.720Z,72.90
2019-02-20T16:42:45.089Z,72.70
2019-02-20T16:45:24.526Z,72.80
2019-02-20T16:47:54.185Z,72.90
2019-02-20T16:50:23.458Z,73.00
2019-02-20T16:52:52.810Z,73.50
2019-02-20T16:55:22.827Z,73.50
2019-02-20T16:57:56.692Z,73.60
2019-02-20T17:00:24.581Z,73.60
2019-02-20T17:02:54.255Z,73.90
2019-02-20T17:05:23.698Z,73.80
2019-02-20T17:07:53.035Z,74.00
2019-02-20T17:10:22.388Z,74.40
2019-02-20T17:12:51.674Z,74.70
2019-02-20T17:15:20.967Z,75.20
2019-02-20T17:17:50.717Z,76.00
2019-02-20T17:20:21.151Z,76.20
2019-02-20T17:22:50.514Z,76.70
2019-02-20T17:25:20.269Z,76.90
2019-02-20T17:27:49.557Z,77.00
2019-02-20T17:30:19.681Z,77.40
2019-02-20T17:32:49.357Z,77.70
2019-02-20T17:35:19.933Z,78.00
2019-02-20T17:37:49.546Z,78.30
2019-02-20T17:40:18.823Z,78.80
2019-02-20T17:42:48.546Z,79.10
2019-02-20T17:45:18.960Z,79.60
2019-02-20T17:47:48.514Z,79.20
2019-02-20T17:50:19.884Z,78.90
2019-02-20T17:52:49.451Z,79.20
2019-02-20T17:55:18.734Z,79.60
2019-02-20T17:57:48.000Z,79.40
2019-02-20T18:00:19.673Z,79.70
2019-02-20T18:02:49.249Z,79.50
2019-02-20T18:05:18.557Z,79.50
2019-02-20T18:07:51.414Z,79.70
2019-02-20T18:10:19.051Z,79.90
2019-02-20T18:12:48.662Z,80.20
2019-02-20T18:15:18.264Z,80.20
2019-02-20T18:17:47.885Z,80.60
2019-02-20T18:20:17.164Z,81.20
2019-02-20T18:22:46.764Z,81.40
2019-02-20T18:25:16.301Z,80.90
2019-02-20T18:27:45.812Z,81.20
2019-02-20T18:30:15.976Z,82.00
2019-02-20T18:32:45.328Z,82.50
2019-02-20T18:35:16.929Z,82.40
2019-02-20T18:37:46.281Z,82.40
2019-02-20T18:40:16.613Z,82.00
2019-02-20T18:42:46.210Z,82.10
2019-02-20T18:45:16.147Z,82.80
2019-02-20T18:47:45.686Z,83.80
2019-02-20T18:50:15.907Z,83.20
2019-02-20T18:52:45.296Z,83.00
2019-02-20T18:55:15.890Z,83.60
2019-02-20T18:57:45.264Z,83.70
2019-02-20T19:00:21.181Z,83.80
2019-02-20T19:02:50.717Z,84.00
2019-02-20T19:05:20.029Z,83.90
2019-02-20T19:07:49.590Z,83.80
2019-02-20T19:10:27.871Z,83.80
2019-02-20T19:13:05.349Z,83.80
2019-02-20T19:15:55.153Z,84.40
2019-02-20T19:18:48.712Z,84.80
2019-02-20T19:21:21.097Z,84.40
2019-02-20T19:24:02.526Z,84.10
2019-02-20T19:26:43.957Z,84.40
2019-02-20T19:29:28.097Z,85.00
2019-02-20T19:32:17.504Z,85.80
2019-02-20T19:35:12.822Z,85.60
2019-02-20T19:38:06.229Z,86.30
2019-02-20T19:41:03.061Z,86.30
2019-02-20T19:43:41.478Z,86.10
2019-02-20T19:46:28.934Z,86.30
2019-02-20T19:49:20.665Z,86.70
2019-02-20T19:52:10.006Z,86.40
2019-02-20T19:54:47.970Z,86.30
2019-02-20T19:57:23.997Z,86.20
2019-02-20T19:59:59.088Z,86.20
2019-02-20T20:02:55.783Z,86.40
2019-02-20T20:05:52.113Z,86.60
2019-02-20T20:08:24.490Z,87.00
2019-02-20T20:11:14.842Z,86.90
2019-02-20T20:13:50.175Z,86.70
2019-02-20T20:16:22.548Z,86.90
2019-02-20T20:19:14.356Z,86.60
2019-02-20T20:21:58.985Z,86.70
2019-02-20T20:24:42.765Z,86.40
2019-02-20T20:27:42.646Z,86.30
2019-02-20T20:30:41.020Z,86.80
2019-02-20T20:33:47.628Z,88.00
2019-02-20T20:36:39.677Z,87.70
2019-02-20T20:39:12.053Z,86.80
2019-02-20T20:42:01.997Z,87.10
2019-02-20T20:44:40.544Z,87.40
2019-02-20T20:47:18.830Z,87.70
2019-02-20T20:50:03.054Z,87.60
2019-02-20T20:52:41.438Z,87.50
2019-02-20T20:55:26.900Z,87.50
2019-02-20T20:58:16.100Z,88.40
2019-02-20T21:00:51.161Z,88.80
2019-02-20T21:03:23.511Z,88.40
2019-02-20T21:06:22.855Z,87.90
2019-02-20T21:08:55.237Z,87.70
2019-02-20T21:11:44.348Z,87.80
2019-02-20T21:14:33.573Z,88.50
2019-02-20T21:17:11.920Z,88.50
2019-02-20T21:19:56.177Z,88.30
2019-02-20T21:22:43.964Z,88.80
2019-02-20T21:25:51.142Z,89.70
2019-02-20T21:28:23.493Z,89.10
2019-02-20T21:30:55.865Z,89.40
2019-02-20T21:33:49.291Z,89.80
2019-02-20T21:36:21.664Z,90.40
2019-02-20T21:38:59.842Z,89.80
2019-02-20T21:41:50.334Z,89.20
2019-02-20T21:44:54.447Z,89.60
2019-02-20T21:47:52.586Z,89.40
2019-02-20T21:50:30.524Z,89.20
2019-02-20T21:53:28.688Z,89.30
2019-02-20T21:56:07.014Z,89.50
2019-02-20T21:58:59.258Z,90.60
2019-02-20T22:01:35.037Z,89.90
2019-02-20T22:04:25.793Z,89.70
2019-02-20T22:07:03.713Z,89.80
2019-02-20T22:09:41.101Z,90.10
2019-02-20T22:12:16.182Z,90.50
2019-02-20T22:14:51.142Z,90.90
2019-02-20T22:17:44.344Z,90.40
2019-02-20T22:20:34.893Z,89.80
2019-02-20T22:23:29.945Z,89.70
2019-02-20T22:26:04.817Z,90.30
2019-02-20T22:28:48.957Z,91.20
2019-02-20T22:31:21.319Z,91.90
2019-02-20T22:34:27.085Z,92.00
2019-02-20T22:37:32.757Z,91.40
2019-02-20T22:40:07.805Z,90.00
2019-02-20T22:42:45.722Z,90.30
2019-02-20T22:45:36.401Z,90.70
2019-02-20T22:48:14.558Z,90.60
2019-02-20T22:51:03.718Z,90.40
2019-02-20T22:53:55.476Z,91.20
2019-02-20T22:56:47.469Z,90.50
2019-02-20T22:59:34.377Z,90.70
2019-02-20T23:02:18.764Z,90.60
2019-02-20T23:04:54.269Z,91.00
2019-02-20T23:07:26.878Z,91.10
2019-02-20T23:10:11.061Z,91.00
2019-02-20T23:12:50.501Z,91.10
2019-02-20T23:15:20.076Z,91.30
2019-02-20T23:17:49.348Z,90.70
2019-02-20T23:20:18.641Z,90.40
2019-02-20T23:22:48.172Z,90.90
2019-02-20T23:25:17.837Z,91.50
2019-02-20T23:27:47.150Z,91.70
2019-02-20T23:30:16.693Z,92.00
2019-02-20T23:32:45.971Z,92.30
2019-02-20T23:35:15.262Z,90.70
2019-02-20T23:37:44.546Z,91.80
2019-02-20T23:40:13.903Z,93.10
2019-02-20T23:42:43.510Z,93.70
2019-02-20T23:45:13.117Z,92.00
2019-02-20T23:47:42.409Z,91.20
2019-02-20T23:50:12.029Z,91.50
2019-02-20T23:52:41.317Z,91.80
2019-02-20T23:55:10.792Z,92.30
2019-02-20T23:57:40.102Z,92.60
